createdAt,value
2022-09-28T00:01:00.965Z,8.20
2022-09-28T00:03:29.151Z,8.20
2022-09-28T00:06:02.428Z,8.20
2022-09-28T00:08:32.357Z,8.20
2022-09-28T00:11:00.407Z,8.20
2022-09-28T00:13:29.449Z,8.20
2022-09-28T00:16:01.854Z,8.20
2022-09-28T00:18:30.114Z,8.20
2022-09-28T00:21:02.698Z,8.20
2022-09-28T00:23:32.335Z,8.10
2022-09-28T00:26:03.746Z,8.20
2022-09-28T00:28:32.048Z,8.20
2022-09-28T00:31:00.322Z,8.20
2022-09-28T00:33:29.568Z,8.10
2022-09-28T00:35:58.739Z,8.20
2022-09-28T00:38:31.382Z,8.20
2022-09-28T00:40:59.603Z,8.20
2022-09-28T00:43:28.020Z,8.30
2022-09-28T00:46:00.164Z,8.20
2022-09-28T00:48:31.410Z,8.30
2022-09-28T00:51:02.109Z,8.30
2022-09-28T00:53:34.810Z,8.30
2022-09-28T00:56:07.376Z,8.30
2022-09-28T00:58:44.322Z,8.30
2022-09-28T01:01:12.910Z,8.30
2022-09-28T01:03:45.229Z,8.30
2022-09-28T01:06:18.897Z,8.20
2022-09-28T01:08:51.486Z,8.30
2022-09-28T01:11:20.440Z,8.30
2022-09-28T01:13:51.238Z,8.30
2022-09-28T01:16:28.469Z,8.30
2022-09-28T01:19:07.976Z,8.30
2022-09-28T01:21:46.545Z,8.30
2022-09-28T01:24:33.469Z,8.30
2022-09-28T01:27:11.418Z,8.30
2022-09-28T01:29:50.261Z,8.30
2022-09-28T01:32:28.819Z,8.30
2022-09-28T01:35:02.014Z,8.30
2022-09-28T01:37:36.712Z,8.30
2022-09-28T01:40:08.098Z,8.30
2022-09-28T01:42:40.541Z,8.30
2022-09-28T01:45:15.462Z,8.20
2022-09-28T01:47:46.134Z,8.20
2022-09-28T01:50:17.664Z,8.20
2022-09-28T01:52:50.989Z,8.20
2022-09-28T01:55:27.553Z,8.30
2022-09-28T01:58:01.315Z,8.30
2022-09-28T02:00:29.838Z,8.30
2022-09-28T02:03:02.992Z,8.30
2022-09-28T02:05:49.902Z,8.30
2022-09-28T02:08:25.362Z,8.20
2022-09-28T02:10:58.717Z,8.20
2022-09-28T02:13:32.561Z,8.10
2022-09-28T02:16:06.053Z,8.10
2022-09-28T02:18:34.612Z,8.10
2022-09-28T02:21:10.049Z,8.10
2022-09-28T02:23:42.653Z,8.10
2022-09-28T02:26:14.913Z,8.10
2022-09-28T02:28:44.479Z,8.20
2022-09-28T02:31:12.637Z,8.10
2022-09-28T02:33:45.113Z,8.10
2022-09-28T02:36:13.833Z,8.10
2022-09-28T02:38:41.866Z,8.10
2022-09-28T02:41:19.333Z,8.10
2022-09-28T02:44:01.417Z,8.10
2022-09-28T02:46:40.429Z,8.30
2022-09-28T02:49:27.956Z,8.10
2022-09-28T02:52:11.494Z,8.00
2022-09-28T02:55:08.592Z,8.10
2022-09-28T02:57:48.162Z,8.00
2022-09-28T03:00:20.655Z,8.00
2022-09-28T03:03:02.372Z,7.90
2022-09-28T03:05:41.025Z,7.90
2022-09-28T03:08:17.089Z,8.00
2022-09-28T03:10:50.653Z,7.90
2022-09-28T03:13:19.601Z,8.00
2022-09-28T03:15:49.210Z,7.90
2022-09-28T03:18:18.677Z,7.90
2022-09-28T03:20:47.443Z,7.90
2022-09-28T03:23:30.714Z,7.80
2022-09-28T03:25:58.829Z,7.90
2022-09-28T03:28:27.938Z,7.90
2022-09-28T03:30:57.876Z,7.90
2022-09-28T03:33:25.879Z,7.90
2022-09-28T03:35:54.586Z,7.80
2022-09-28T03:38:23.012Z,7.90
2022-09-28T03:40:54.842Z,7.90
2022-09-28T03:43:23.516Z,7.90
2022-09-28T03:45:54.425Z,7.90
2022-09-28T03:48:31.920Z,7.90
2022-09-28T03:51:03.005Z,7.90
2022-09-28T03:53:31.302Z,7.90
2022-09-28T03:56:04.353Z,7.90
2022-09-28T03:58:33.252Z,7.90
2022-09-28T04:01:05.809Z,8.00
2022-09-28T04:03:35.898Z,7.80
2022-09-28T04:06:04.125Z,7.80
2022-09-28T04:08:32.411Z,7.80
2022-09-28T04:11:01.493Z,7.80
2022-09-28T04:13:31.484Z,7.80
2022-09-28T04:16:02.025Z,7.70
2022-09-28T04:18:35.166Z,7.80
2022-09-28T04:21:14.277Z,7.80
2022-09-28T04:23:48.978Z,7.70
2022-09-28T04:26:19.613Z,7.70
2022-09-28T04:29:07.203Z,7.80
2022-09-28T04:31:40.243Z,7.80
2022-09-28T04:34:10.037Z,7.70
2022-09-28T04:36:38.248Z,7.80
2022-09-28T04:39:06.422Z,7.80
2022-09-28T04:41:35.143Z,7.70
2022-09-28T04:44:04.273Z,7.80
2022-09-28T04:46:32.351Z,7.80
2022-09-28T04:49:20.279Z,7.80
2022-09-28T04:51:54.427Z,7.80
2022-09-28T04:54:22.503Z,7.80
2022-09-28T04:56:52.507Z,7.80
2022-09-28T04:59:20.974Z,7.80
2022-09-28T05:01:49.441Z,7.80
2022-09-28T05:04:31.449Z,7.80
2022-09-28T05:07:10.744Z,7.80
2022-09-28T05:09:39.428Z,7.80
2022-09-28T05:12:07.510Z,7.80
2022-09-28T05:14:35.664Z,7.80
2022-09-28T05:17:05.123Z,7.80
2022-09-28T05:19:50.045Z,7.80
2022-09-28T05:22:18.056Z,7.80
2022-09-28T05:24:47.744Z,7.80
2022-09-28T05:27:16.199Z,7.70
2022-09-28T05:29:47.888Z,7.80
2022-09-28T05:32:25.100Z,7.80
2022-09-28T05:35:08.921Z,7.80
2022-09-28T05:37:43.430Z,7.80
2022-09-28T05:40:12.341Z,7.80
2022-09-28T05:42:40.898Z,7.80
2022-09-28T05:45:10.306Z,7.80
2022-09-28T05:47:41.729Z,7.80
2022-09-28T05:50:15.694Z,7.80
2022-09-28T05:52:44.817Z,7.80
2022-09-28T05:55:14.499Z,7.80
2022-09-28T05:57:43.329Z,7.80
2022-09-28T06:00:12.817Z,7.80
2022-09-28T06:02:42.371Z,7.90
2022-09-28T06:05:14.471Z,7.90
2022-09-28T06:07:42.743Z,7.90
2022-09-28T06:10:11.494Z,7.80
2022-09-28T06:12:43.514Z,7.90
2022-09-28T06:15:17.803Z,7.90
2022-09-28T06:17:47.356Z,7.90
2022-09-28T06:20:39.645Z,7.90
2022-09-28T06:23:11.309Z,8.00
2022-09-28T06:25:39.584Z,8.00
2022-09-28T06:28:10.226Z,8.00
2022-09-28T06:30:39.174Z,8.00
2022-09-28T06:33:13.497Z,8.00
2022-09-28T06:35:43.835Z,8.00
2022-09-28T06:38:12.700Z,7.90
2022-09-28T06:40:40.821Z,7.90
2022-09-28T06:43:12.131Z,7.90
2022-09-28T06:46:15.630Z,7.90
2022-09-28T06:48:44.247Z,8.00
2022-09-28T06:51:20.901Z,8.10
2022-09-28T06:53:57.055Z,8.10
2022-09-28T06:56:54.411Z,8.10
2022-09-28T06:59:22.528Z,8.10
2022-09-28T07:01:50.846Z,8.20
2022-09-28T07:04:42.980Z,8.20
2022-09-28T07:07:15.133Z,8.30
2022-09-28T07:10:22.071Z,8.40
2022-09-28T07:13:14.614Z,8.40
2022-09-28T07:15:55.870Z,8.50
2022-09-28T07:18:24.328Z,8.60
2022-09-28T07:20:54.663Z,8.70
2022-09-28T07:23:26.206Z,8.90
2022-09-28T07:26:12.535Z,9.20
2022-09-28T07:28:59.387Z,9.30
2022-09-28T07:31:48.468Z,9.30
2022-09-28T07:34:39.856Z,9.20
2022-09-28T07:37:13.614Z,9.20
2022-09-28T07:40:00.799Z,9.10
2022-09-28T07:42:30.955Z,9.10
2022-09-28T07:44:59.543Z,9.00
2022-09-28T07:47:33.924Z,9.00
2022-09-28T07:50:32.838Z,8.90
2022-09-28T07:53:22.305Z,8.90
2022-09-28T07:56:07.200Z,9.00
2022-09-28T07:58:43.047Z,9.10
2022-09-28T08:01:40.131Z,9.20
2022-09-28T08:04:10.779Z,9.30
2022-09-28T08:06:40.577Z,9.40
2022-09-28T08:09:10.579Z,9.40
2022-09-28T08:12:00.579Z,9.40
2022-09-28T08:15:00.073Z,9.30
2022-09-28T08:17:48.441Z,9.30
2022-09-28T08:20:36.050Z,9.40
2022-09-28T08:23:04.870Z,9.50
2022-09-28T08:25:34.350Z,9.80
2022-09-28T08:28:07.151Z,10.10
2022-09-28T08:30:39.082Z,10.60
2022-09-28T08:33:39.429Z,10.70
2022-09-28T08:36:45.665Z,10.50
2022-09-28T08:39:34.395Z,10.30
2022-09-28T08:42:35.642Z,10.30
2022-09-28T08:45:29.848Z,10.30
2022-09-28T08:48:29.047Z,10.40
2022-09-28T08:51:20.034Z,10.50
2022-09-28T08:54:25.622Z,10.50
2022-09-28T08:56:59.424Z,10.30
2022-09-28T08:59:32.491Z,10.30
2022-09-28T09:02:16.504Z,10.30
2022-09-28T09:04:44.825Z,10.50
2022-09-28T09:07:41.926Z,11.10
2022-09-28T09:10:28.573Z,11.20
2022-09-28T09:13:07.313Z,11.30
2022-09-28T09:15:48.727Z,11.10
2022-09-28T09:18:36.877Z,11.10
2022-09-28T09:21:39.630Z,11.10
2022-09-28T09:24:30.453Z,11.10
2022-09-28T09:27:14.032Z,11.10
2022-09-28T09:30:01.172Z,11.20
2022-09-28T09:32:44.363Z,11.60
2022-09-28T09:35:31.102Z,12.00
2022-09-28T09:38:46.369Z,12.10
2022-09-28T09:41:51.566Z,11.80
2022-09-28T09:45:14.470Z,11.50
2022-09-28T09:48:05.503Z,11.10
2022-09-28T09:50:41.319Z,11.10
2022-09-28T09:53:17.267Z,11.10
2022-09-28T09:55:47.987Z,11.20
2022-09-28T09:58:40.341Z,11.10
2022-09-28T10:01:28.084Z,11.00
2022-09-28T10:04:31.892Z,11.00
2022-09-28T10:07:07.638Z,11.00
2022-09-28T10:09:42.164Z,11.00
2022-09-28T10:12:27.425Z,11.00
2022-09-28T10:14:56.530Z,10.90
2022-09-28T10:17:28.591Z,11.00
2022-09-28T10:20:35.598Z,11.00
2022-09-28T10:23:23.441Z,11.00
2022-09-28T10:25:55.024Z,11.00
2022-09-28T10:28:30.244Z,11.20
2022-09-28T10:30:58.532Z,11.50
2022-09-28T10:33:31.942Z,11.60
2022-09-28T10:36:01.232Z,11.70
2022-09-28T10:38:31.821Z,11.60
2022-09-28T10:41:16.570Z,11.60
2022-09-28T10:44:07.078Z,11.50
2022-09-28T10:46:57.910Z,11.30
2022-09-28T10:49:27.021Z,11.20
2022-09-28T10:51:58.698Z,11.20
2022-09-28T10:54:53.182Z,11.30
2022-09-28T10:57:29.365Z,11.10
2022-09-28T11:00:06.939Z,11.30
2022-09-28T11:02:58.144Z,11.40
2022-09-28T11:05:28.639Z,11.40
2022-09-28T11:08:00.819Z,11.20
2022-09-28T11:10:37.238Z,11.20
2022-09-28T11:13:15.868Z,11.00
2022-09-28T11:15:51.137Z,11.10
2022-09-28T11:18:31.461Z,11.20
2022-09-28T11:21:12.678Z,11.40
2022-09-28T11:23:44.124Z,11.70
2022-09-28T11:26:22.912Z,11.90
2022-09-28T11:28:53.486Z,12.00
2022-09-28T11:31:32.434Z,12.20
2022-09-28T11:34:15.924Z,12.00
2022-09-28T11:37:16.357Z,11.90
2022-09-28T11:39:54.287Z,11.70
2022-09-28T11:42:36.374Z,11.60
2022-09-28T11:45:24.710Z,11.60
2022-09-28T11:47:59.086Z,11.50
2022-09-28T11:50:40.408Z,11.40
2022-09-28T11:53:19.660Z,11.50
2022-09-28T11:55:55.709Z,11.50
2022-09-28T11:58:30.503Z,11.50
2022-09-28T12:01:06.427Z,11.60
2022-09-28T12:04:07.754Z,11.60
2022-09-28T12:06:41.730Z,11.60
2022-09-28T12:09:19.770Z,11.60
2022-09-28T12:12:04.238Z,11.60
2022-09-28T12:14:47.933Z,11.80
2022-09-28T12:17:22.381Z,12.30
2022-09-28T12:19:55.576Z,13.00
2022-09-28T12:22:30.288Z,14.40
2022-09-28T12:24:59.284Z,15.50
2022-09-28T12:27:33.611Z,17.20
2022-09-28T12:30:06.507Z,17.80
2022-09-28T12:32:39.214Z,17.20
2022-09-28T12:35:13.573Z,16.20
2022-09-28T12:37:55.406Z,15.40
2022-09-28T12:40:37.477Z,14.80
2022-09-28T12:43:40.491Z,14.40
2022-09-28T12:46:30.293Z,14.30
2022-09-28T12:52:24.021Z,13.80
2022-09-28T12:55:20.725Z,13.40
2022-09-28T12:57:59.719Z,13.40
2022-09-28T13:00:35.525Z,13.20
2022-09-28T13:03:31.900Z,13.10
2022-09-28T13:06:15.005Z,13.10
2022-09-28T13:08:53.246Z,13.20
2022-09-28T13:11:31.800Z,13.30
2022-09-28T13:14:22.167Z,13.30
2022-09-28T13:17:00.495Z,13.30
2022-09-28T13:19:41.151Z,13.20
2022-09-28T13:22:22.011Z,13.20
2022-09-28T13:24:51.377Z,13.10
2022-09-28T13:27:26.734Z,13.20
2022-09-28T13:29:58.720Z,13.30
2022-09-28T13:32:31.486Z,13.20
2022-09-28T13:35:02.459Z,13.40
2022-09-28T13:37:30.803Z,13.50
2022-09-28T13:39:59.733Z,14.20
2022-09-28T13:42:55.625Z,14.40
2022-09-28T13:45:46.478Z,14.70
2022-09-28T13:48:17.096Z,14.60
2022-09-28T13:51:25.216Z,14.30
2022-09-28T13:54:11.063Z,13.90
2022-09-28T13:56:50.248Z,13.40
2022-09-28T13:59:24.688Z,13.30
2022-09-28T14:01:57.575Z,13.70
2022-09-28T14:04:53.391Z,14.70
2022-09-28T14:07:25.514Z,15.10
2022-09-28T14:10:17.093Z,14.70
2022-09-28T14:12:49.786Z,14.20
2022-09-28T14:15:54.621Z,14.10
2022-09-28T14:18:32.123Z,14.10
2022-09-28T14:21:18.797Z,13.90
2022-09-28T14:24:16.347Z,13.80
2022-09-28T14:27:20.159Z,13.60
2022-09-28T14:29:51.862Z,13.50
2022-09-28T14:32:25.496Z,13.40
2022-09-28T14:34:59.174Z,13.20
2022-09-28T14:37:47.306Z,13.10
2022-09-28T14:40:39.517Z,13.10
2022-09-28T14:43:27.200Z,13.00
2022-09-28T14:46:31.083Z,13.00
2022-09-28T14:49:03.346Z,13.00
2022-09-28T14:52:07.985Z,12.90
2022-09-28T14:54:59.353Z,13.00
2022-09-28T14:57:32.177Z,13.00
2022-09-28T15:00:01.636Z,13.10
2022-09-28T15:02:33.467Z,13.20
2022-09-28T15:05:11.874Z,13.20
2022-09-28T15:07:49.511Z,13.10
2022-09-28T15:10:32.095Z,13.10
2022-09-28T15:13:03.717Z,13.10
2022-09-28T15:15:34.761Z,13.20
2022-09-28T15:18:13.595Z,13.10
2022-09-28T15:20:43.570Z,13.00
2022-09-28T15:23:26.907Z,13.00
2022-09-28T15:25:56.082Z,12.90
2022-09-28T15:28:25.839Z,12.90
2022-09-28T15:31:00.440Z,12.90
2022-09-28T15:33:48.015Z,12.90
2022-09-28T15:36:21.117Z,12.80
2022-09-28T15:38:55.930Z,12.80
2022-09-28T15:41:25.492Z,12.60
2022-09-28T15:44:33.282Z,12.70
2022-09-28T15:47:16.535Z,12.60
2022-09-28T15:49:48.047Z,12.40
2022-09-28T15:52:29.675Z,12.30
2022-09-28T15:54:58.949Z,12.30
2022-09-28T15:57:33.895Z,12.30
2022-09-28T16:00:04.216Z,12.30
2022-09-28T16:02:39.976Z,12.20
2022-09-28T16:05:34.044Z,12.20
2022-09-28T16:08:04.252Z,12.20
2022-09-28T16:10:34.483Z,12.00
2022-09-28T16:13:15.521Z,12.10
2022-09-28T16:15:45.365Z,12.10
2022-09-28T16:18:20.604Z,12.20
2022-09-28T16:20:51.025Z,12.10
2022-09-28T16:23:24.043Z,12.10
2022-09-28T16:25:56.355Z,12.10
2022-09-28T16:28:48.724Z,12.10
2022-09-28T16:31:37.210Z,12.00
2022-09-28T16:34:20.692Z,11.90
2022-09-28T16:36:49.970Z,11.80
2022-09-28T16:39:20.524Z,11.80
2022-09-28T16:41:52.845Z,11.80
2022-09-28T16:44:25.767Z,11.70
2022-09-28T16:47:00.175Z,11.70
2022-09-28T16:49:28.524Z,11.60
2022-09-28T16:51:56.514Z,11.50
2022-09-28T16:54:43.900Z,11.40
2022-09-28T16:57:13.852Z,11.30
2022-09-28T16:59:42.216Z,11.20
2022-09-28T17:02:45.188Z,11.20
2022-09-28T17:05:10.159Z,11.20
2022-09-28T17:07:39.267Z,11.10
2022-09-28T17:10:18.282Z,11.00
2022-09-28T17:12:46.426Z,10.90
2022-09-28T17:15:20.290Z,10.90
2022-09-28T17:17:51.284Z,10.80
2022-09-28T17:20:22.801Z,10.80
2022-09-28T17:22:51.094Z,10.80
2022-09-28T17:25:19.430Z,10.80
2022-09-28T17:27:48.970Z,10.70
2022-09-28T17:30:20.252Z,10.70
2022-09-28T17:32:51.739Z,10.60
2022-09-28T17:35:25.040Z,10.50
2022-09-28T17:37:54.320Z,10.40
2022-09-28T17:40:24.500Z,10.30
2022-09-28T17:42:55.082Z,10.20
2022-09-28T17:45:24.158Z,10.10
2022-09-28T17:47:53.825Z,10.00
2022-09-28T17:50:24.662Z,10.00
2022-09-28T17:52:53.609Z,9.90
2022-09-28T17:55:22.806Z,9.90
2022-09-28T17:57:51.509Z,9.90
2022-09-28T18:00:19.901Z,9.80
2022-09-28T18:02:49.076Z,9.80
2022-09-28T18:05:19.587Z,9.80
2022-09-28T18:07:49.787Z,9.80
2022-09-28T18:10:19.573Z,9.80
2022-09-28T18:12:48.517Z,9.70
2022-09-28T18:15:20.104Z,9.80
2022-09-28T18:17:48.226Z,9.80
2022-09-28T18:20:17.719Z,9.70
2022-09-28T18:22:45.822Z,9.60
2022-09-28T18:25:14.042Z,9.50
2022-09-28T18:27:42.627Z,9.50
2022-09-28T18:30:11.452Z,9.60
2022-09-28T18:32:39.920Z,9.50
2022-09-28T18:35:11.145Z,9.50
2022-09-28T18:37:41.571Z,9.50
2022-09-28T18:40:12.724Z,9.50
2022-09-28T18:42:41.412Z,9.50
2022-09-28T18:45:11.798Z,9.50
2022-09-28T18:47:40.679Z,9.50
2022-09-28T18:50:09.753Z,9.50
2022-09-28T18:52:38.201Z,9.50
2022-09-28T18:55:08.841Z,9.50
2022-09-28T18:57:37.635Z,9.40
2022-09-28T19:00:09.356Z,9.40
2022-09-28T19:02:37.817Z,9.40
2022-09-28T19:05:07.150Z,9.30
2022-09-28T19:07:36.585Z,9.30
2022-09-28T19:10:05.507Z,9.20
2022-09-28T19:12:35.304Z,9.20
2022-09-28T19:15:03.591Z,9.10
2022-09-28T19:17:31.761Z,9.20
2022-09-28T19:19:59.919Z,9.20
2022-09-28T19:22:28.007Z,9.20
2022-09-28T19:24:56.940Z,9.20
2022-09-28T19:27:25.054Z,9.20
2022-09-28T19:29:54.536Z,9.20
2022-09-28T19:32:22.650Z,9.20
2022-09-28T19:34:50.856Z,9.10
2022-09-28T19:37:19.104Z,9.10
2022-09-28T19:39:47.287Z,9.00
2022-09-28T19:42:15.452Z,8.90
2022-09-28T19:44:43.922Z,8.90
2022-09-28T19:47:13.435Z,8.90
2022-09-28T19:49:41.872Z,8.80
2022-09-28T19:52:15.602Z,8.70
2022-09-28T19:54:45.991Z,8.70
2022-09-28T19:57:15.997Z,8.70
2022-09-28T19:59:44.310Z,8.60
2022-09-28T20:02:14.045Z,8.60
2022-09-28T20:04:42.095Z,8.30
2022-09-28T20:07:10.375Z,8.30
2022-09-28T20:09:38.364Z,8.20
2022-09-28T20:12:06.583Z,8.10
2022-09-28T20:14:39.439Z,8.10
2022-09-28T20:17:08.767Z,8.00
2022-09-28T20:19:38.339Z,8.00
2022-09-28T20:22:06.556Z,8.00
2022-09-28T20:24:34.659Z,8.00
2022-09-28T20:27:02.743Z,7.90
2022-09-28T20:29:33.375Z,7.90
2022-09-28T20:32:03.761Z,7.80
2022-09-28T20:34:36.502Z,7.70
2022-09-28T20:37:05.846Z,7.70
2022-09-28T20:39:34.393Z,7.70
2022-09-28T20:42:02.788Z,7.60
2022-09-28T20:44:31.215Z,7.60
2022-09-28T20:46:59.401Z,7.50
2022-09-28T20:49:28.082Z,7.50
2022-09-28T20:51:56.165Z,7.40
2022-09-28T20:54:25.592Z,7.30
2022-09-28T20:56:53.620Z,7.30
2022-09-28T20:59:24.191Z,7.20
2022-09-28T21:01:52.441Z,7.10
2022-09-28T21:04:20.667Z,7.00
2022-09-28T21:06:48.788Z,7.00
2022-09-28T21:09:16.781Z,6.90
2022-09-28T21:11:46.689Z,6.90
2022-09-28T21:14:15.070Z,6.90
2022-09-28T21:16:43.059Z,6.80
2022-09-28T21:19:11.051Z,6.80
2022-09-28T21:21:39.230Z,6.70
2022-09-28T21:24:07.811Z,6.70
2022-09-28T21:26:35.839Z,6.70
2022-09-28T21:29:07.365Z,6.70
2022-09-28T21:31:39.965Z,6.70
2022-09-28T21:34:08.363Z,6.70
2022-09-28T21:36:36.660Z,6.70
2022-09-28T21:39:09.525Z,6.70
2022-09-28T21:41:38.601Z,6.70
2022-09-28T21:44:08.494Z,6.60
2022-09-28T21:46:37.345Z,6.50
2022-09-28T21:49:07.650Z,6.40
2022-09-28T21:51:36.449Z,6.40
2022-09-28T21:54:04.770Z,6.40
2022-09-28T21:56:32.741Z,6.40
2022-09-28T21:59:01.260Z,6.30
2022-09-28T22:01:31.743Z,6.30
2022-09-28T22:03:59.969Z,6.20
2022-09-28T22:06:28.925Z,6.10
2022-09-28T22:08:57.687Z,6.10
2022-09-28T22:11:28.399Z,6.10
2022-09-28T22:13:58.101Z,6.10
2022-09-28T22:16:28.872Z,6.10
2022-09-28T22:18:58.833Z,6.00
2022-09-28T22:21:28.490Z,5.90
2022-09-28T22:24:00.863Z,5.90
2022-09-28T22:26:29.881Z,5.90
2022-09-28T22:28:59.441Z,5.90
2022-09-28T22:31:29.163Z,5.90
2022-09-28T22:33:58.803Z,5.90
2022-09-28T22:36:27.521Z,5.80
2022-09-28T22:38:56.466Z,5.80
2022-09-28T22:41:24.900Z,5.80
2022-09-28T22:43:54.761Z,5.70
2022-09-28T22:46:24.963Z,5.60
2022-09-28T22:48:54.733Z,5.60
2022-09-28T22:51:25.289Z,5.60
2022-09-28T22:53:53.651Z,5.60
2022-09-28T22:56:21.678Z,5.50
2022-09-28T22:58:49.660Z,5.50
2022-09-28T23:01:20.888Z,5.50
2022-09-28T23:03:49.561Z,5.50
2022-09-28T23:06:20.926Z,5.50
2022-09-28T23:08:51.745Z,5.50
2022-09-28T23:11:20.242Z,5.60
2022-09-28T23:13:50.687Z,5.60
2022-09-28T23:16:19.779Z,5.60
2022-09-28T23:18:49.072Z,5.60
2022-09-28T23:21:19.650Z,5.60
2022-09-28T23:23:54.458Z,5.60
2022-09-28T23:26:25.018Z,5.60
2022-09-28T23:28:54.175Z,5.60
2022-09-28T23:31:24.331Z,5.50
2022-09-28T23:33:52.684Z,5.50
2022-09-28T23:36:20.714Z,5.50
2022-09-28T23:38:48.765Z,5.50
2022-09-28T23:41:18.128Z,5.50
2022-09-28T23:43:46.518Z,5.50
2022-09-28T23:46:19.671Z,5.60
2022-09-28T23:48:48.716Z,5.60
2022-09-28T23:51:16.775Z,5.60
2022-09-28T23:53:44.812Z,5.60
2022-09-28T23:56:12.883Z,5.50
2022-09-28T23:58:42.220Z,5.50
